ADDS - METARS form results

Aviation Digital Data Service (ADDS)

Output produced by METARs form (2157 UTC 19 June 2019)
found at http://aviationweather.gov/metar/data/
 
METAR text: KC09 192135Z AUTO 05004KT 7SM RA SCT035 OVC044 20/17 A2968 RMK AO2 P0001 T01950165
Conditions at: KC09 (MORRIS-WASHBURN , IL, US) observed 2135 UTC 19 June 2019
Temperature: 19.5°C (67°F)
Dewpoint: 16.5°C (62°F) [RH = 83%]
Pressure (altimeter): 29.68 inches Hg (1005.2 mb)
Winds: from the NE (50 degrees) at 5 MPH (4 knots; 2.1 m/s)
Visibility: 7 miles (11 km)
Ceiling: 4400 feet AGL
Clouds: scattered clouds at 3500 feet AGL
overcast cloud deck at 4400 feet AGL
Weather: RA  (moderate rain)

METAR text: KC09 192115Z AUTO 05005KT 10SM RA SCT027 BKN034 OVC080 21/15 A2968 RMK AO2 T02060153
Conditions at: KC09 (MORRIS-WASHBURN , IL, US) observed 2115 UTC 19 June 2019
Temperature: 20.6°C (69°F)
Dewpoint: 15.3°C (60°F) [RH = 72%]
Pressure (altimeter): 29.68 inches Hg (1005.2 mb)
Winds: from the NE (50 degrees) at 6 MPH (5 knots; 2.6 m/s)
Visibility: 10 or more miles (16+ km)
Ceiling: 3400 feet AGL
Clouds: scattered clouds at 2700 feet AGL
broken clouds at 3400 feet AGL
overcast cloud deck at 8000 feet AGL
Weather: RA  (moderate rain)